sensor_id;sensor_type;location;lat;lon;timestamp;P1;durP1;ratioP1;P2;durP2;ratioP2
53765;SDS011;39682;51.490;7.310;2023-03-01T00:02:03;10.30;;;6.63;;
53765;SDS011;39682;51.490;7.310;2023-03-01T00:04:29;11.45;;;5.50;;
53765;SDS011;39682;51.490;7.310;2023-03-01T00:06:55;9.65;;;5.95;;
53765;SDS011;39682;51.490;7.310;2023-03-01T00:09:22;10.52;;;5.28;;
53765;SDS011;39682;51.490;7.310;2023-03-01T00:11:48;14.07;;;6.40;;
53765;SDS011;39682;51.490;7.310;2023-03-01T00:14:14;9.98;;;6.30;;
53765;SDS011;39682;51.490;7.310;2023-03-01T00:16:42;9.45;;;6.07;;
53765;SDS011;39682;51.490;7.310;2023-03-01T00:19:10;10.77;;;5.78;;
53765;SDS011;39682;51.490;7.310;2023-03-01T00:21:37;9.20;;;5.47;;
53765;SDS011;39682;51.490;7.310;2023-03-01T00:24:03;10.90;;;5.45;;
53765;SDS011;39682;51.490;7.310;2023-03-01T00:26:29;11.20;;;6.25;;
53765;SDS011;39682;51.490;7.310;2023-03-01T00:29:04;11.27;;;6.63;;
53765;SDS011;39682;51.490;7.310;2023-03-01T00:31:31;12.73;;;6.03;;
53765;SDS011;39682;51.490;7.310;2023-03-01T00:33:59;9.95;;;5.50;;
53765;SDS011;39682;51.490;7.310;2023-03-01T00:36:27;10.85;;;5.28;;
53765;SDS011;39682;51.490;7.310;2023-03-01T00:38:54;9.45;;;5.88;;
53765;SDS011;39682;51.490;7.310;2023-03-01T00:41:20;9.90;;;6.15;;
53765;SDS011;39682;51.490;7.310;2023-03-01T00:43:47;8.40;;;5.60;;
53765;SDS011;39682;51.490;7.310;2023-03-01T00:46:18;9.52;;;5.70;;
53765;SDS011;39682;51.490;7.310;2023-03-01T00:48:44;10.60;;;6.50;;
53765;SDS011;39682;51.490;7.310;2023-03-01T00:51:18;9.52;;;6.13;;
53765;SDS011;39682;51.490;7.310;2023-03-01T00:53:44;10.98;;;6.05;;
53765;SDS011;39682;51.490;7.310;2023-03-01T00:56:11;9.07;;;5.22;;
53765;SDS011;39682;51.490;7.310;2023-03-01T00:58:37;11.07;;;6.07;;
53765;SDS011;39682;51.490;7.310;2023-03-01T01:01:07;9.90;;;6.47;;
53765;SDS011;39682;51.490;7.310;2023-03-01T01:03:42;10.55;;;5.75;;
53765;SDS011;39682;51.490;7.310;2023-03-01T01:06:12;10.38;;;6.05;;
53765;SDS011;39682;51.490;7.310;2023-03-01T01:08:38;8.95;;;6.15;;
53765;SDS011;39682;51.490;7.310;2023-03-01T01:11:04;12.55;;;6.53;;
53765;SDS011;39682;51.490;7.310;2023-03-01T01:13:30;12.68;;;5.85;;
53765;SDS011;39682;51.490;7.310;2023-03-01T01:16:00;12.77;;;6.75;;
53765;SDS011;39682;51.490;7.310;2023-03-01T01:18:26;13.93;;;6.30;;
53765;SDS011;39682;51.490;7.310;2023-03-01T01:20:52;14.50;;;6.40;;
53765;SDS011;39682;51.490;7.310;2023-03-01T01:23:18;9.57;;;6.40;;
53765;SDS011;39682;51.490;7.310;2023-03-01T01:25:44;9.32;;;5.78;;
53765;SDS011;39682;51.490;7.310;2023-03-01T01:28:10;11.85;;;6.78;;
53765;SDS011;39682;51.490;7.310;2023-03-01T01:30:36;11.50;;;6.20;;
53765;SDS011;39682;51.490;7.310;2023-03-01T01:33:02;12.45;;;6.43;;
53765;SDS011;39682;51.490;7.310;2023-03-01T01:35:28;11.57;;;6.50;;
53765;SDS011;39682;51.490;7.310;2023-03-01T01:37:54;9.68;;;6.13;;
53765;SDS011;39682;51.490;7.310;2023-03-01T01:40:20;13.18;;;6.40;;
53765;SDS011;39682;51.490;7.310;2023-03-01T01:42:45;11.73;;;6.03;;
53765;SDS011;39682;51.490;7.310;2023-03-01T01:50:55;10.00;;;6.03;;
53765;SDS011;39682;51.490;7.310;2023-03-01T01:53:22;12.38;;;6.97;;
53765;SDS011;39682;51.490;7.310;2023-03-01T01:55:54;11.95;;;6.35;;
53765;SDS011;39682;51.490;7.310;2023-03-01T01:58:22;9.05;;;5.97;;
53765;SDS011;39682;51.490;7.310;2023-03-01T02:00:49;10.05;;;6.25;;
53765;SDS011;39682;51.490;7.310;2023-03-01T02:03:19;10.38;;;6.97;;
53765;SDS011;39682;51.490;7.310;2023-03-01T02:05:50;10.15;;;6.15;;
53765;SDS011;39682;51.490;7.310;2023-03-01T02:08:20;11.07;;;6.13;;
53765;SDS011;39682;51.490;7.310;2023-03-01T02:10:48;9.43;;;5.95;;
53765;SDS011;39682;51.490;7.310;2023-03-01T02:13:15;14.57;;;6.45;;
53765;SDS011;39682;51.490;7.310;2023-03-01T02:15:41;10.93;;;6.13;;
53765;SDS011;39682;51.490;7.310;2023-03-01T02:18:09;12.65;;;6.18;;
53765;SDS011;39682;51.490;7.310;2023-03-01T02:21:22;13.25;;;6.95;;
53765;SDS011;39682;51.490;7.310;2023-03-01T02:23:22;11.15;;;6.65;;
53765;SDS011;39682;51.490;7.310;2023-03-01T02:30:43;11.85;;;6.90;;
53765;SDS011;39682;51.490;7.310;2023-03-01T02:33:29;14.85;;;6.55;;
53765;SDS011;39682;51.490;7.310;2023-03-01T02:36:01;15.65;;;6.43;;
53765;SDS011;39682;51.490;7.310;2023-03-01T02:38:27;9.15;;;5.97;;
53765;SDS011;39682;51.490;7.310;2023-03-01T02:40:54;12.35;;;6.65;;
53765;SDS011;39682;51.490;7.310;2023-03-01T02:43:20;13.65;;;6.78;;
53765;SDS011;39682;51.490;7.310;2023-03-01T02:45:51;10.52;;;6.32;;
53765;SDS011;39682;51.490;7.310;2023-03-01T02:48:18;10.13;;;7.05;;
53765;SDS011;39682;51.490;7.310;2023-03-01T02:51:05;12.43;;;6.55;;
53765;SDS011;39682;51.490;7.310;2023-03-01T02:56:08;12.93;;;7.15;;
53765;SDS011;39682;51.490;7.310;2023-03-01T02:58:37;10.55;;;6.47;;
53765;SDS011;39682;51.490;7.310;2023-03-01T03:01:10;10.88;;;6.43;;
53765;SDS011;39682;51.490;7.310;2023-03-01T03:03:36;11.68;;;6.40;;
53765;SDS011;39682;51.490;7.310;2023-03-01T03:06:02;13.55;;;6.78;;
53765;SDS011;39682;51.490;7.310;2023-03-01T03:08:28;37.20;;;8.00;;
53765;SDS011;39682;51.490;7.310;2023-03-01T03:10:54;13.48;;;7.43;;
53765;SDS011;39682;51.490;7.310;2023-03-01T03:13:21;13.18;;;6.65;;
53765;SDS011;39682;51.490;7.310;2023-03-01T03:15:47;14.38;;;6.63;;
53765;SDS011;39682;51.490;7.310;2023-03-01T03:18:15;10.55;;;6.75;;
53765;SDS011;39682;51.490;7.310;2023-03-01T03:20:41;13.98;;;6.97;;
53765;SDS011;39682;51.490;7.310;2023-03-01T03:23:08;12.48;;;7.15;;
53765;SDS011;39682;51.490;7.310;2023-03-01T03:25:34;14.30;;;7.25;;
53765;SDS011;39682;51.490;7.310;2023-03-01T03:28:02;13.02;;;6.72;;
53765;SDS011;39682;51.490;7.310;2023-03-01T03:30:34;11.25;;;7.38;;
53765;SDS011;39682;51.490;7.310;2023-03-01T03:33:00;12.90;;;6.93;;
53765;SDS011;39682;51.490;7.310;2023-03-01T03:35:27;12.52;;;6.85;;
53765;SDS011;39682;51.490;7.310;2023-03-01T03:37:55;12.93;;;6.40;;
53765;SDS011;39682;51.490;7.310;2023-03-01T03:40:28;12.45;;;6.20;;
53765;SDS011;39682;51.490;7.310;2023-03-01T03:42:54;11.40;;;7.18;;
53765;SDS011;39682;51.490;7.310;2023-03-01T03:45:20;13.68;;;6.88;;
53765;SDS011;39682;51.490;7.310;2023-03-01T03:47:46;13.25;;;6.47;;
53765;SDS011;39682;51.490;7.310;2023-03-01T03:50:13;12.35;;;6.63;;
53765;SDS011;39682;51.490;7.310;2023-03-01T03:52:39;9.30;;;5.80;;
53765;SDS011;39682;51.490;7.310;2023-03-01T03:55:06;12.10;;;6.40;;
53765;SDS011;39682;51.490;7.310;2023-03-01T03:57:39;11.32;;;6.72;;
53765;SDS011;39682;51.490;7.310;2023-03-01T04:00:05;11.95;;;6.70;;
53765;SDS011;39682;51.490;7.310;2023-03-01T04:02:37;12.93;;;6.57;;
53765;SDS011;39682;51.490;7.310;2023-03-01T04:05:04;11.95;;;6.40;;
53765;SDS011;39682;51.490;7.310;2023-03-01T04:07:30;12.10;;;7.90;;
53765;SDS011;39682;51.490;7.310;2023-03-01T04:09:56;12.00;;;7.10;;
53765;SDS011;39682;51.490;7.310;2023-03-01T04:12:21;12.70;;;6.72;;
53765;SDS011;39682;51.490;7.310;2023-03-01T04:14:48;14.27;;;7.10;;
53765;SDS011;39682;51.490;7.310;2023-03-01T04:17:14;11.95;;;7.43;;
53765;SDS011;39682;51.490;7.310;2023-03-01T04:19:39;12.55;;;6.95;;
53765;SDS011;39682;51.490;7.310;2023-03-01T04:22:08;12.23;;;7.57;;
53765;SDS011;39682;51.490;7.310;2023-03-01T04:24:36;12.15;;;6.63;;
53765;SDS011;39682;51.490;7.310;2023-03-01T04:27:02;13.13;;;7.57;;
53765;SDS011;39682;51.490;7.310;2023-03-01T04:29:28;13.38;;;6.90;;
53765;SDS011;39682;51.490;7.310;2023-03-01T04:31:54;10.48;;;6.68;;
53765;SDS011;39682;51.490;7.310;2023-03-01T04:34:20;11.48;;;6.38;;
53765;SDS011;39682;51.490;7.310;2023-03-01T04:36:46;11.85;;;6.85;;
53765;SDS011;39682;51.490;7.310;2023-03-01T04:39:12;11.18;;;7.20;;
53765;SDS011;39682;51.490;7.310;2023-03-01T04:41:38;12.20;;;7.10;;
53765;SDS011;39682;51.490;7.310;2023-03-01T04:44:04;11.85;;;6.88;;
53765;SDS011;39682;51.490;7.310;2023-03-01T04:46:30;12.20;;;7.25;;
53765;SDS011;39682;51.490;7.310;2023-03-01T04:48:56;12.13;;;7.28;;
53765;SDS011;39682;51.490;7.310;2023-03-01T04:51:22;13.25;;;7.85;;
53765;SDS011;39682;51.490;7.310;2023-03-01T04:53:48;12.80;;;7.60;;
53765;SDS011;39682;51.490;7.310;2023-03-01T04:56:14;11.80;;;6.95;;
53765;SDS011;39682;51.490;7.310;2023-03-01T04:58:42;12.27;;;7.82;;
53765;SDS011;39682;51.490;7.310;2023-03-01T05:01:09;12.48;;;6.70;;
53765;SDS011;39682;51.490;7.310;2023-03-01T05:03:40;15.23;;;8.02;;
53765;SDS011;39682;51.490;7.310;2023-03-01T05:06:06;12.50;;;7.45;;
53765;SDS011;39682;51.490;7.310;2023-03-01T05:08:32;13.57;;;7.72;;
53765;SDS011;39682;51.490;7.310;2023-03-01T05:10:59;13.10;;;7.15;;
53765;SDS011;39682;51.490;7.310;2023-03-01T05:13:25;12.60;;;7.35;;
53765;SDS011;39682;51.490;7.310;2023-03-01T05:15:55;15.20;;;8.15;;
53765;SDS011;39682;51.490;7.310;2023-03-01T05:18:21;14.82;;;7.70;;
53765;SDS011;39682;51.490;7.310;2023-03-01T05:20:50;12.63;;;8.02;;
53765;SDS011;39682;51.490;7.310;2023-03-01T05:23:16;13.27;;;7.63;;
53765;SDS011;39682;51.490;7.310;2023-03-01T05:25:43;16.73;;;8.18;;
53765;SDS011;39682;51.490;7.310;2023-03-01T05:28:12;13.73;;;7.57;;
53765;SDS011;39682;51.490;7.310;2023-03-01T05:30:38;13.82;;;8.10;;
53765;SDS011;39682;51.490;7.310;2023-03-01T05:33:04;13.77;;;7.30;;
53765;SDS011;39682;51.490;7.310;2023-03-01T05:35:35;13.80;;;7.90;;
53765;SDS011;39682;51.490;7.310;2023-03-01T05:38:01;17.40;;;8.20;;
53765;SDS011;39682;51.490;7.310;2023-03-01T05:40:27;14.45;;;7.55;;
53765;SDS011;39682;51.490;7.310;2023-03-01T05:42:55;12.68;;;7.70;;
53765;SDS011;39682;51.490;7.310;2023-03-01T05:45:22;17.35;;;8.50;;
53765;SDS011;39682;51.490;7.310;2023-03-01T05:47:48;16.52;;;8.15;;
53765;SDS011;39682;51.490;7.310;2023-03-01T05:50:18;15.88;;;8.68;;
53765;SDS011;39682;51.490;7.310;2023-03-01T05:52:51;15.68;;;7.75;;
53765;SDS011;39682;51.490;7.310;2023-03-01T05:55:18;15.85;;;7.63;;
53765;SDS011;39682;51.490;7.310;2023-03-01T05:57:44;16.98;;;7.72;;
53765;SDS011;39682;51.490;7.310;2023-03-01T06:00:10;15.15;;;7.78;;
53765;SDS011;39682;51.490;7.310;2023-03-01T06:02:37;14.27;;;7.50;;
53765;SDS011;39682;51.490;7.310;2023-03-01T06:05:04;14.15;;;7.70;;
53765;SDS011;39682;51.490;7.310;2023-03-01T06:07:30;17.85;;;8.32;;
53765;SDS011;39682;51.490;7.310;2023-03-01T06:09:56;13.15;;;7.22;;
53765;SDS011;39682;51.490;7.310;2023-03-01T06:12:22;16.42;;;8.10;;
53765;SDS011;39682;51.490;7.310;2023-03-01T06:14:48;12.88;;;8.00;;
53765;SDS011;39682;51.490;7.310;2023-03-01T06:17:14;15.48;;;7.80;;
53765;SDS011;39682;51.490;7.310;2023-03-01T06:19:40;15.23;;;8.30;;
53765;SDS011;39682;51.490;7.310;2023-03-01T06:22:06;19.08;;;8.77;;
53765;SDS011;39682;51.490;7.310;2023-03-01T06:24:33;13.43;;;8.30;;
53765;SDS011;39682;51.490;7.310;2023-03-01T06:26:59;18.02;;;9.18;;
53765;SDS011;39682;51.490;7.310;2023-03-01T06:29:25;17.15;;;8.77;;
53765;SDS011;39682;51.490;7.310;2023-03-01T06:31:51;16.05;;;8.25;;
53765;SDS011;39682;51.490;7.310;2023-03-01T06:34:17;14.25;;;8.32;;
53765;SDS011;39682;51.490;7.310;2023-03-01T06:36:43;13.10;;;8.38;;
53765;SDS011;39682;51.490;7.310;2023-03-01T06:39:09;15.45;;;8.50;;
53765;SDS011;39682;51.490;7.310;2023-03-01T06:41:35;19.55;;;8.32;;
53765;SDS011;39682;51.490;7.310;2023-03-01T06:44:00;32.95;;;9.00;;
53765;SDS011;39682;51.490;7.310;2023-03-01T06:46:27;14.90;;;8.40;;
53765;SDS011;39682;51.490;7.310;2023-03-01T06:48:53;17.80;;;9.27;;
53765;SDS011;39682;51.490;7.310;2023-03-01T06:51:19;16.27;;;9.13;;
53765;SDS011;39682;51.490;7.310;2023-03-01T06:53:45;17.65;;;9.70;;
53765;SDS011;39682;51.490;7.310;2023-03-01T06:56:11;17.23;;;8.30;;
53765;SDS011;39682;51.490;7.310;2023-03-01T06:58:37;19.40;;;8.75;;
53765;SDS011;39682;51.490;7.310;2023-03-01T07:01:07;16.50;;;8.70;;
53765;SDS011;39682;51.490;7.310;2023-03-01T07:03:33;17.17;;;8.95;;
53765;SDS011;39682;51.490;7.310;2023-03-01T07:05:59;15.13;;;8.30;;
53765;SDS011;39682;51.490;7.310;2023-03-01T07:08:25;15.63;;;8.93;;
53765;SDS011;39682;51.490;7.310;2023-03-01T07:10:54;16.52;;;9.20;;
53765;SDS011;39682;51.490;7.310;2023-03-01T07:13:20;19.17;;;9.93;;
53765;SDS011;39682;51.490;7.310;2023-03-01T07:15:46;15.25;;;8.73;;
53765;SDS011;39682;51.490;7.310;2023-03-01T07:18:12;18.05;;;9.27;;
53765;SDS011;39682;51.490;7.310;2023-03-01T07:20:38;19.08;;;10.60;;
53765;SDS011;39682;51.490;7.310;2023-03-01T07:23:05;18.15;;;9.70;;
53765;SDS011;39682;51.490;7.310;2023-03-01T07:25:31;18.95;;;10.00;;
53765;SDS011;39682;51.490;7.310;2023-03-01T07:27:57;20.85;;;9.90;;
53765;SDS011;39682;51.490;7.310;2023-03-01T07:30:23;17.17;;;10.13;;
53765;SDS011;39682;51.490;7.310;2023-03-01T07:32:52;14.75;;;8.38;;
53765;SDS011;39682;51.490;7.310;2023-03-01T07:35:18;17.67;;;9.55;;
53765;SDS011;39682;51.490;7.310;2023-03-01T07:37:44;16.80;;;8.93;;
53765;SDS011;39682;51.490;7.310;2023-03-01T07:40:10;20.63;;;9.70;;
53765;SDS011;39682;51.490;7.310;2023-03-01T07:42:37;16.00;;;10.10;;
53765;SDS011;39682;51.490;7.310;2023-03-01T07:45:03;18.10;;;9.40;;
53765;SDS011;39682;51.490;7.310;2023-03-01T07:47:30;16.20;;;9.07;;
53765;SDS011;39682;51.490;7.310;2023-03-01T07:49:56;21.83;;;9.68;;
53765;SDS011;39682;51.490;7.310;2023-03-01T07:52:22;14.43;;;8.60;;
53765;SDS011;39682;51.490;7.310;2023-03-01T07:54:48;17.50;;;9.13;;
53765;SDS011;39682;51.490;7.310;2023-03-01T07:57:14;19.08;;;9.80;;
53765;SDS011;39682;51.490;7.310;2023-03-01T07:59:40;17.77;;;9.25;;
53765;SDS011;39682;51.490;7.310;2023-03-01T08:02:06;16.42;;;10.43;;
53765;SDS011;39682;51.490;7.310;2023-03-01T08:04:32;16.85;;;8.52;;
53765;SDS011;39682;51.490;7.310;2023-03-01T08:06:58;15.38;;;8.00;;
53765;SDS011;39682;51.490;7.310;2023-03-01T08:09:24;23.02;;;11.13;;
53765;SDS011;39682;51.490;7.310;2023-03-01T08:11:51;12.13;;;8.57;;
53765;SDS011;39682;51.490;7.310;2023-03-01T08:14:17;15.82;;;8.35;;
53765;SDS011;39682;51.490;7.310;2023-03-01T08:16:43;17.38;;;8.93;;
53765;SDS011;39682;51.490;7.310;2023-03-01T08:19:10;15.95;;;7.90;;
53765;SDS011;39682;51.490;7.310;2023-03-01T08:21:36;16.15;;;7.88;;
53765;SDS011;39682;51.490;7.310;2023-03-01T08:24:03;11.93;;;7.25;;
53765;SDS011;39682;51.490;7.310;2023-03-01T08:26:30;15.50;;;8.23;;
53765;SDS011;39682;51.490;7.310;2023-03-01T08:28:57;13.60;;;8.13;;
53765;SDS011;39682;51.490;7.310;2023-03-01T08:31:24;16.17;;;8.15;;
53765;SDS011;39682;51.490;7.310;2023-03-01T08:33:52;15.02;;;8.05;;
53765;SDS011;39682;51.490;7.310;2023-03-01T08:36:25;16.27;;;8.93;;
53765;SDS011;39682;51.490;7.310;2023-03-01T08:38:51;16.42;;;8.77;;
53765;SDS011;39682;51.490;7.310;2023-03-01T08:41:17;16.92;;;9.15;;
53765;SDS011;39682;51.490;7.310;2023-03-01T08:43:43;10.70;;;6.65;;
53765;SDS011;39682;51.490;7.310;2023-03-01T08:46:09;13.00;;;6.03;;
53765;SDS011;39682;51.490;7.310;2023-03-01T08:48:36;13.10;;;7.50;;
53765;SDS011;39682;51.490;7.310;2023-03-01T08:51:12;12.63;;;6.03;;
53765;SDS011;39682;51.490;7.310;2023-03-01T08:53:38;13.07;;;7.60;;
53765;SDS011;39682;51.490;7.310;2023-03-01T08:56:05;15.93;;;6.95;;
53765;SDS011;39682;51.490;7.310;2023-03-01T08:58:31;12.70;;;6.70;;
53765;SDS011;39682;51.490;7.310;2023-03-01T09:00:57;16.33;;;7.70;;
53765;SDS011;39682;51.490;7.310;2023-03-01T09:03:23;13.73;;;5.95;;
53765;SDS011;39682;51.490;7.310;2023-03-01T09:05:50;12.18;;;6.90;;
53765;SDS011;39682;51.490;7.310;2023-03-01T09:08:17;10.75;;;6.03;;
53765;SDS011;39682;51.490;7.310;2023-03-01T09:10:43;10.88;;;5.55;;
53765;SDS011;39682;51.490;7.310;2023-03-01T09:13:09;11.85;;;6.13;;
53765;SDS011;39682;51.490;7.310;2023-03-01T09:15:36;10.82;;;5.78;;
53765;SDS011;39682;51.490;7.310;2023-03-01T09:18:02;11.05;;;6.35;;
53765;SDS011;39682;51.490;7.310;2023-03-01T09:20:28;7.47;;;4.35;;
53765;SDS011;39682;51.490;7.310;2023-03-01T09:22:55;9.70;;;4.93;;
53765;SDS011;39682;51.490;7.310;2023-03-01T09:25:21;13.85;;;7.30;;
53765;SDS011;39682;51.490;7.310;2023-03-01T09:27:49;12.02;;;5.88;;
53765;SDS011;39682;51.490;7.310;2023-03-01T09:30:16;9.75;;;5.40;;
53765;SDS011;39682;51.490;7.310;2023-03-01T09:32:42;8.35;;;5.10;;
53765;SDS011;39682;51.490;7.310;2023-03-01T09:35:09;9.10;;;5.03;;
53765;SDS011;39682;51.490;7.310;2023-03-01T09:37:35;9.15;;;4.97;;
53765;SDS011;39682;51.490;7.310;2023-03-01T09:40:03;8.88;;;4.82;;
53765;SDS011;39682;51.490;7.310;2023-03-01T09:42:31;9.77;;;3.80;;
53765;SDS011;39682;51.490;7.310;2023-03-01T09:45:00;7.60;;;5.03;;
53765;SDS011;39682;51.490;7.310;2023-03-01T09:47:28;11.55;;;5.00;;
53765;SDS011;39682;51.490;7.310;2023-03-01T09:54:55;5.35;;;3.38;;
53765;SDS011;39682;51.490;7.310;2023-03-01T10:00:20;12.73;;;5.18;;
53765;SDS011;39682;51.490;7.310;2023-03-01T10:05:19;6.20;;;3.95;;
53765;SDS011;39682;51.490;7.310;2023-03-01T10:10:26;9.57;;;4.68;;
53765;SDS011;39682;51.490;7.310;2023-03-01T10:12:53;7.57;;;4.32;;
53765;SDS011;39682;51.490;7.310;2023-03-01T10:15:30;7.32;;;4.25;;
53765;SDS011;39682;51.490;7.310;2023-03-01T10:18:04;8.65;;;3.50;;
53765;SDS011;39682;51.490;7.310;2023-03-01T10:23:29;6.70;;;4.03;;
53765;SDS011;39682;51.490;7.310;2023-03-01T10:30:57;5.88;;;3.05;;
53765;SDS011;39682;51.490;7.310;2023-03-01T10:33:25;8.40;;;4.72;;
53765;SDS011;39682;51.490;7.310;2023-03-01T10:35:52;7.80;;;4.97;;
53765;SDS011;39682;51.490;7.310;2023-03-01T10:38:18;12.25;;;5.10;;
53765;SDS011;39682;51.490;7.310;2023-03-01T10:40:52;7.90;;;4.35;;
53765;SDS011;39682;51.490;7.310;2023-03-01T10:43:19;8.88;;;4.60;;
53765;SDS011;39682;51.490;7.310;2023-03-01T10:45:45;11.30;;;4.90;;
53765;SDS011;39682;51.490;7.310;2023-03-01T10:50:41;6.47;;;3.67;;
53765;SDS011;39682;51.490;7.310;2023-03-01T10:53:17;6.43;;;3.75;;
53765;SDS011;39682;51.490;7.310;2023-03-01T10:55:45;10.10;;;4.68;;
53765;SDS011;39682;51.490;7.310;2023-03-01T11:00:51;6.80;;;4.40;;
53765;SDS011;39682;51.490;7.310;2023-03-01T11:03:19;8.95;;;4.40;;
53765;SDS011;39682;51.490;7.310;2023-03-01T11:05:54;9.32;;;4.70;;
53765;SDS011;39682;51.490;7.310;2023-03-01T11:08:34;5.63;;;3.95;;
53765;SDS011;39682;51.490;7.310;2023-03-01T11:11:04;7.80;;;4.22;;
53765;SDS011;39682;51.490;7.310;2023-03-01T11:13:30;7.95;;;4.50;;
53765;SDS011;39682;51.490;7.310;2023-03-01T11:16:03;6.90;;;4.78;;
53765;SDS011;39682;51.490;7.310;2023-03-01T11:18:31;9.90;;;5.00;;
53765;SDS011;39682;51.490;7.310;2023-03-01T11:20:58;9.15;;;4.93;;
53765;SDS011;39682;51.490;7.310;2023-03-01T11:23:25;9.70;;;4.75;;
53765;SDS011;39682;51.490;7.310;2023-03-01T11:26:01;10.70;;;5.75;;
53765;SDS011;39682;51.490;7.310;2023-03-01T11:28:28;7.53;;;5.13;;
53765;SDS011;39682;51.490;7.310;2023-03-01T11:31:05;9.75;;;5.03;;
53765;SDS011;39682;51.490;7.310;2023-03-01T11:36:05;8.27;;;4.50;;
53765;SDS011;39682;51.490;7.310;2023-03-01T11:38:32;8.00;;;4.63;;
53765;SDS011;39682;51.490;7.310;2023-03-01T11:41:20;7.68;;;4.70;;
53765;SDS011;39682;51.490;7.310;2023-03-01T11:43:57;7.25;;;4.78;;
53765;SDS011;39682;51.490;7.310;2023-03-01T11:49:04;8.90;;;5.20;;
53765;SDS011;39682;51.490;7.310;2023-03-01T11:57:17;8.82;;;4.85;;
53765;SDS011;39682;51.490;7.310;2023-03-01T12:04:33;9.13;;;4.80;;
53765;SDS011;39682;51.490;7.310;2023-03-01T12:07:07;9.02;;;4.75;;
53765;SDS011;39682;51.490;7.310;2023-03-01T12:10:03;7.93;;;4.97;;
53765;SDS011;39682;51.490;7.310;2023-03-01T12:25:37;11.55;;;7.38;;
53765;SDS011;39682;51.490;7.310;2023-03-01T12:33:10;9.20;;;5.80;;
53765;SDS011;39682;51.490;7.310;2023-03-01T12:38:22;7.65;;;4.57;;
53765;SDS011;39682;51.490;7.310;2023-03-01T12:44:06;7.95;;;4.55;;
53765;SDS011;39682;51.490;7.310;2023-03-01T12:46:52;9.30;;;5.18;;
53765;SDS011;39682;51.490;7.310;2023-03-01T12:49:40;7.80;;;4.67;;
53765;SDS011;39682;51.490;7.310;2023-03-01T12:52:10;9.07;;;5.10;;
53765;SDS011;39682;51.490;7.310;2023-03-01T12:54:37;9.10;;;5.47;;
53765;SDS011;39682;51.490;7.310;2023-03-01T12:59:51;8.18;;;4.72;;
53765;SDS011;39682;51.490;7.310;2023-03-01T13:07:26;8.82;;;5.32;;
53765;SDS011;39682;51.490;7.310;2023-03-01T13:15:13;8.82;;;4.90;;
53765;SDS011;39682;51.490;7.310;2023-03-01T13:17:53;6.05;;;3.53;;
53765;SDS011;39682;51.490;7.310;2023-03-01T13:20:21;6.38;;;4.57;;
53765;SDS011;39682;51.490;7.310;2023-03-01T13:22:47;8.95;;;5.28;;
53765;SDS011;39682;51.490;7.310;2023-03-01T13:25:17;9.68;;;5.65;;
53765;SDS011;39682;51.490;7.310;2023-03-01T13:27:44;8.80;;;4.75;;
53765;SDS011;39682;51.490;7.310;2023-03-01T13:33:14;6.63;;;3.93;;
53765;SDS011;39682;51.490;7.310;2023-03-01T13:35:41;9.00;;;5.32;;
53765;SDS011;39682;51.490;7.310;2023-03-01T13:38:36;7.65;;;5.25;;
53765;SDS011;39682;51.490;7.310;2023-03-01T13:41:02;8.23;;;5.50;;
53765;SDS011;39682;51.490;7.310;2023-03-01T13:43:33;6.18;;;4.47;;
53765;SDS011;39682;51.490;7.310;2023-03-01T13:46:00;10.25;;;5.38;;
53765;SDS011;39682;51.490;7.310;2023-03-01T13:48:28;6.72;;;4.90;;
53765;SDS011;39682;51.490;7.310;2023-03-01T13:50:55;8.90;;;5.50;;
53765;SDS011;39682;51.490;7.310;2023-03-01T13:53:24;9.48;;;5.25;;
53765;SDS011;39682;51.490;7.310;2023-03-01T13:55:51;8.55;;;4.50;;
53765;SDS011;39682;51.490;7.310;2023-03-01T13:58:23;10.20;;;5.70;;
53765;SDS011;39682;51.490;7.310;2023-03-01T14:03:22;8.93;;;5.07;;
53765;SDS011;39682;51.490;7.310;2023-03-01T14:19:41;8.75;;;4.88;;
53765;SDS011;39682;51.490;7.310;2023-03-01T14:25:21;6.60;;;4.95;;
53765;SDS011;39682;51.490;7.310;2023-03-01T14:27:52;6.65;;;4.40;;
53765;SDS011;39682;51.490;7.310;2023-03-01T14:30:21;7.43;;;4.82;;
53765;SDS011;39682;51.490;7.310;2023-03-01T14:32:58;7.70;;;5.00;;
53765;SDS011;39682;51.490;7.310;2023-03-01T14:35:26;6.78;;;4.35;;
53765;SDS011;39682;51.490;7.310;2023-03-01T14:37:52;9.65;;;4.05;;
53765;SDS011;39682;51.490;7.310;2023-03-01T14:40:25;7.53;;;4.47;;
53765;SDS011;39682;51.490;7.310;2023-03-01T14:42:52;7.10;;;4.63;;
53765;SDS011;39682;51.490;7.310;2023-03-01T14:45:19;6.78;;;4.68;;
53765;SDS011;39682;51.490;7.310;2023-03-01T14:47:45;11.07;;;4.38;;
53765;SDS011;39682;51.490;7.310;2023-03-01T14:52:44;7.93;;;5.60;;
53765;SDS011;39682;51.490;7.310;2023-03-01T14:55:19;6.20;;;4.10;;
53765;SDS011;39682;51.490;7.310;2023-03-01T14:57:49;8.07;;;3.83;;
53765;SDS011;39682;51.490;7.310;2023-03-01T15:00:17;6.55;;;4.53;;
53765;SDS011;39682;51.490;7.310;2023-03-01T15:02:45;8.35;;;4.43;;
53765;SDS011;39682;51.490;7.310;2023-03-01T15:05:13;8.68;;;4.47;;
53765;SDS011;39682;51.490;7.310;2023-03-01T15:07:40;6.45;;;4.03;;
53765;SDS011;39682;51.490;7.310;2023-03-01T15:10:07;7.57;;;4.05;;
53765;SDS011;39682;51.490;7.310;2023-03-01T15:12:40;7.85;;;4.55;;
53765;SDS011;39682;51.490;7.310;2023-03-01T15:15:20;5.72;;;3.88;;
53765;SDS011;39682;51.490;7.310;2023-03-01T15:17:48;7.72;;;4.25;;
53765;SDS011;39682;51.490;7.310;2023-03-01T15:20:18;8.55;;;4.30;;
53765;SDS011;39682;51.490;7.310;2023-03-01T15:22:50;7.43;;;4.25;;
53765;SDS011;39682;51.490;7.310;2023-03-01T15:25:19;7.80;;;5.15;;
53765;SDS011;39682;51.490;7.310;2023-03-01T15:27:47;8.10;;;4.65;;
53765;SDS011;39682;51.490;7.310;2023-03-01T15:32:48;6.78;;;4.45;;
53765;SDS011;39682;51.490;7.310;2023-03-01T15:35:41;6.47;;;4.13;;
53765;SDS011;39682;51.490;7.310;2023-03-01T15:41:23;7.88;;;4.40;;
53765;SDS011;39682;51.490;7.310;2023-03-01T15:43:49;7.63;;;4.30;;
53765;SDS011;39682;51.490;7.310;2023-03-01T15:46:16;11.13;;;4.78;;
53765;SDS011;39682;51.490;7.310;2023-03-01T15:48:46;6.05;;;3.95;;
53765;SDS011;39682;51.490;7.310;2023-03-01T15:51:14;5.78;;;3.58;;
53765;SDS011;39682;51.490;7.310;2023-03-01T15:53:41;6.10;;;3.83;;
53765;SDS011;39682;51.490;7.310;2023-03-01T15:56:07;9.07;;;4.53;;
53765;SDS011;39682;51.490;7.310;2023-03-01T15:58:33;6.65;;;3.90;;
53765;SDS011;39682;51.490;7.310;2023-03-01T16:00:59;7.13;;;4.13;;
53765;SDS011;39682;51.490;7.310;2023-03-01T16:03:25;6.03;;;3.40;;
53765;SDS011;39682;51.490;7.310;2023-03-01T16:05:51;6.55;;;3.65;;
53765;SDS011;39682;51.490;7.310;2023-03-01T16:08:18;8.77;;;4.85;;
53765;SDS011;39682;51.490;7.310;2023-03-01T16:10:44;8.32;;;3.80;;
53765;SDS011;39682;51.490;7.310;2023-03-01T16:13:13;8.40;;;4.28;;
53765;SDS011;39682;51.490;7.310;2023-03-01T16:15:39;8.88;;;3.70;;
53765;SDS011;39682;51.490;7.310;2023-03-01T16:18:06;7.25;;;3.88;;
53765;SDS011;39682;51.490;7.310;2023-03-01T16:20:32;6.88;;;4.45;;
53765;SDS011;39682;51.490;7.310;2023-03-01T16:22:59;10.48;;;3.95;;
53765;SDS011;39682;51.490;7.310;2023-03-01T16:25:25;6.35;;;3.13;;
53765;SDS011;39682;51.490;7.310;2023-03-01T16:27:51;4.85;;;2.60;;
53765;SDS011;39682;51.490;7.310;2023-03-01T16:30:18;7.95;;;3.97;;
53765;SDS011;39682;51.490;7.310;2023-03-01T16:32:45;5.47;;;3.20;;
53765;SDS011;39682;51.490;7.310;2023-03-01T16:35:12;7.70;;;3.58;;
53765;SDS011;39682;51.490;7.310;2023-03-01T16:37:39;5.55;;;3.30;;
53765;SDS011;39682;51.490;7.310;2023-03-01T16:40:05;6.70;;;3.80;;
53765;SDS011;39682;51.490;7.310;2023-03-01T16:42:35;8.48;;;4.05;;
53765;SDS011;39682;51.490;7.310;2023-03-01T16:45:02;8.57;;;4.25;;
53765;SDS011;39682;51.490;7.310;2023-03-01T16:47:28;6.15;;;3.75;;
53765;SDS011;39682;51.490;7.310;2023-03-01T16:49:54;6.68;;;3.90;;